Аэропорт: Брянск. Брянск

ICAO: UUBP

METAR:
2019/05/25 15:00
UUBP 251500Z 23003MPS 9999 -TSRA BKN021CB 16/14 Q1006 R16/CLRD70 NOSIG RMK QFE736/0982
METAR:
2010/09/15 10:45
TAF TAF UUBP 151045Z 1512/1524 18005G10MPS 9999 SCT030